sensor_id;sensor_type;location;lat;lon;timestamp;temperature;humidity
19090;DHT22;9677;50.656;13.064;2022-12-18T00:00:12;-1.00;56.60
19090;DHT22;9677;50.656;13.064;2022-12-18T00:02:41;-1.00;56.70
19090;DHT22;9677;50.656;13.064;2022-12-18T00:05:12;-1.00;56.60
19090;DHT22;9677;50.656;13.064;2022-12-18T00:07:40;-1.00;56.60
19090;DHT22;9677;50.656;13.064;2022-12-18T00:10:09;-1.00;56.60
19090;DHT22;9677;50.656;13.064;2022-12-18T00:12:44;-1.10;56.50
19090;DHT22;9677;50.656;13.064;2022-12-18T00:15:13;-1.10;56.50
19090;DHT22;9677;50.656;13.064;2022-12-18T00:17:41;-1.10;56.60
19090;DHT22;9677;50.656;13.064;2022-12-18T00:20:11;-1.10;56.60
19090;DHT22;9677;50.656;13.064;2022-12-18T00:22:40;-1.10;56.60
19090;DHT22;9677;50.656;13.064;2022-12-18T00:25:09;-1.10;56.60
19090;DHT22;9677;50.656;13.064;2022-12-18T00:27:37;-1.10;56.60
19090;DHT22;9677;50.656;13.064;2022-12-18T00:30:07;-1.20;56.50
19090;DHT22;9677;50.656;13.064;2022-12-18T00:32:36;-1.20;56.50
19090;DHT22;9677;50.656;13.064;2022-12-18T00:35:06;-1.20;56.50
19090;DHT22;9677;50.656;13.064;2022-12-18T00:37:36;-1.20;56.60
19090;DHT22;9677;50.656;13.064;2022-12-18T00:40:06;-1.20;56.60
19090;DHT22;9677;50.656;13.064;2022-12-18T00:42:36;-1.30;56.50
19090;DHT22;9677;50.656;13.064;2022-12-18T00:45:29;-1.30;56.50
19090;DHT22;9677;50.656;13.064;2022-12-18T00:47:58;-1.30;56.50
19090;DHT22;9677;50.656;13.064;2022-12-18T00:50:27;-1.30;56.40
19090;DHT22;9677;50.656;13.064;2022-12-18T00:52:57;-1.40;56.40
19090;DHT22;9677;50.656;13.064;2022-12-18T00:55:26;-1.40;56.40
19090;DHT22;9677;50.656;13.064;2022-12-18T00:57:54;-1.40;56.30
19090;DHT22;9677;50.656;13.064;2022-12-18T01:00:23;-1.40;56.30
19090;DHT22;9677;50.656;13.064;2022-12-18T01:02:52;-1.40;56.30
19090;DHT22;9677;50.656;13.064;2022-12-18T01:05:20;-1.50;56.20
19090;DHT22;9677;50.656;13.064;2022-12-18T01:07:49;-1.50;56.10
19090;DHT22;9677;50.656;13.064;2022-12-18T01:10:20;-1.50;56.20
19090;DHT22;9677;50.656;13.064;2022-12-18T01:12:49;-1.60;56.10
19090;DHT22;9677;50.656;13.064;2022-12-18T01:15:18;-1.60;56.20
19090;DHT22;9677;50.656;13.064;2022-12-18T01:17:48;-1.60;56.20
19090;DHT22;9677;50.656;13.064;2022-12-18T01:20:17;-1.70;56.10
19090;DHT22;9677;50.656;13.064;2022-12-18T01:22:45;-1.70;56.00
19090;DHT22;9677;50.656;13.064;2022-12-18T01:25:14;-1.80;56.00
19090;DHT22;9677;50.656;13.064;2022-12-18T01:27:44;-1.80;56.00
19090;DHT22;9677;50.656;13.064;2022-12-18T01:30:13;-1.80;56.20
19090;DHT22;9677;50.656;13.064;2022-12-18T01:32:41;-1.80;56.30
19090;DHT22;9677;50.656;13.064;2022-12-18T01:35:10;-1.90;56.30
19090;DHT22;9677;50.656;13.064;2022-12-18T01:37:39;-1.50;56.60
19090;DHT22;9677;50.656;13.064;2022-12-18T01:40:08;-1.90;56.40
19090;DHT22;9677;50.656;13.064;2022-12-18T01:42:38;-1.90;56.40
19090;DHT22;9677;50.656;13.064;2022-12-18T01:45:27;-1.90;56.40
19090;DHT22;9677;50.656;13.064;2022-12-18T01:47:57;-1.90;56.40
19090;DHT22;9677;50.656;13.064;2022-12-18T01:50:30;-2.00;56.30
19090;DHT22;9677;50.656;13.064;2022-12-18T01:53:05;-2.00;56.30
19090;DHT22;9677;50.656;13.064;2022-12-18T01:55:37;-2.00;56.30
19090;DHT22;9677;50.656;13.064;2022-12-18T01:58:09;-2.00;56.30
19090;DHT22;9677;50.656;13.064;2022-12-18T02:00:39;-2.00;56.40
19090;DHT22;9677;50.656;13.064;2022-12-18T02:03:08;-2.00;56.40
19090;DHT22;9677;50.656;13.064;2022-12-18T02:05:44;-2.10;56.40
19090;DHT22;9677;50.656;13.064;2022-12-18T02:08:20;-2.10;56.40
19090;DHT22;9677;50.656;13.064;2022-12-18T02:10:57;-2.10;56.30
19090;DHT22;9677;50.656;13.064;2022-12-18T02:13:36;-2.10;56.30
19090;DHT22;9677;50.656;13.064;2022-12-18T02:16:18;-2.10;56.30
19090;DHT22;9677;50.656;13.064;2022-12-18T02:18:55;-2.20;56.30
19090;DHT22;9677;50.656;13.064;2022-12-18T02:21:32;-2.20;56.30
19090;DHT22;9677;50.656;13.064;2022-12-18T02:24:18;-1.70;56.50
19090;DHT22;9677;50.656;13.064;2022-12-18T02:26:59;-2.30;56.20
19090;DHT22;9677;50.656;13.064;2022-12-18T02:29:34;-2.30;56.30
19090;DHT22;9677;50.656;13.064;2022-12-18T02:32:08;-2.30;56.40
19090;DHT22;9677;50.656;13.064;2022-12-18T02:34:40;-2.30;56.40
19090;DHT22;9677;50.656;13.064;2022-12-18T02:37:15;-2.30;56.50
19090;DHT22;9677;50.656;13.064;2022-12-18T02:39:49;-2.30;56.50
19090;DHT22;9677;50.656;13.064;2022-12-18T02:42:20;-2.30;56.50
19090;DHT22;9677;50.656;13.064;2022-12-18T02:44:50;-2.30;56.50
19090;DHT22;9677;50.656;13.064;2022-12-18T02:47:28;-2.40;56.40
19090;DHT22;9677;50.656;13.064;2022-12-18T02:50:04;-2.40;56.40
19090;DHT22;9677;50.656;13.064;2022-12-18T02:52:43;-2.40;56.40
19090;DHT22;9677;50.656;13.064;2022-12-18T02:55:26;-2.30;56.50
19090;DHT22;9677;50.656;13.064;2022-12-18T02:58:10;-2.40;56.40
19090;DHT22;9677;50.656;13.064;2022-12-18T03:00:51;-2.40;56.40
19090;DHT22;9677;50.656;13.064;2022-12-18T03:03:25;-2.40;56.40
19090;DHT22;9677;50.656;13.064;2022-12-18T03:06:01;-2.40;56.50
19090;DHT22;9677;50.656;13.064;2022-12-18T03:08:35;-2.50;56.40
19090;DHT22;9677;50.656;13.064;2022-12-18T03:11:08;-2.40;56.40
19090;DHT22;9677;50.656;13.064;2022-12-18T03:13:43;-2.50;56.30
19090;DHT22;9677;50.656;13.064;2022-12-18T03:16:17;-2.50;56.40
19090;DHT22;9677;50.656;13.064;2022-12-18T03:18:54;-2.50;56.40
19090;DHT22;9677;50.656;13.064;2022-12-18T03:21:29;-2.50;56.40
19090;DHT22;9677;50.656;13.064;2022-12-18T03:24:04;-2.40;56.50
19090;DHT22;9677;50.656;13.064;2022-12-18T03:26:37;-2.60;56.30
19090;DHT22;9677;50.656;13.064;2022-12-18T03:29:11;-2.30;56.50
19090;DHT22;9677;50.656;13.064;2022-12-18T03:31:47;-2.60;56.30
19090;DHT22;9677;50.656;13.064;2022-12-18T03:34:22;-2.60;56.40
19090;DHT22;9677;50.656;13.064;2022-12-18T03:36:53;-2.60;56.30
19090;DHT22;9677;50.656;13.064;2022-12-18T03:39:23;-2.60;56.30
19090;DHT22;9677;50.656;13.064;2022-12-18T03:42:00;-2.60;56.30
19090;DHT22;9677;50.656;13.064;2022-12-18T03:44:42;-2.60;56.30
19090;DHT22;9677;50.656;13.064;2022-12-18T03:47:16;-2.60;56.30
19090;DHT22;9677;50.656;13.064;2022-12-18T03:49:53;-2.60;56.30
19090;DHT22;9677;50.656;13.064;2022-12-18T03:52:35;-2.50;56.40
19090;DHT22;9677;50.656;13.064;2022-12-18T03:55:09;-2.60;56.40
19090;DHT22;9677;50.656;13.064;2022-12-18T03:57:40;-2.40;56.60
19090;DHT22;9677;50.656;13.064;2022-12-18T04:00:14;-2.70;56.40
19090;DHT22;9677;50.656;13.064;2022-12-18T04:03:02;-2.70;56.30
19090;DHT22;9677;50.656;13.064;2022-12-18T04:05:41;-2.70;56.20
19090;DHT22;9677;50.656;13.064;2022-12-18T04:08:12;-2.80;56.20
19090;DHT22;9677;50.656;13.064;2022-12-18T04:10:44;-2.80;56.10
19090;DHT22;9677;50.656;13.064;2022-12-18T04:13:21;-2.80;56.10
19090;DHT22;9677;50.656;13.064;2022-12-18T04:15:52;-2.70;56.20
19090;DHT22;9677;50.656;13.064;2022-12-18T04:18:22;-2.60;56.20
19090;DHT22;9677;50.656;13.064;2022-12-18T04:20:52;-2.90;56.10
19090;DHT22;9677;50.656;13.064;2022-12-18T04:23:21;-2.90;56.10
19090;DHT22;9677;50.656;13.064;2022-12-18T04:25:52;-2.90;56.10
19090;DHT22;9677;50.656;13.064;2022-12-18T04:28:34;-2.90;56.10
19090;DHT22;9677;50.656;13.064;2022-12-18T04:31:05;-3.00;56.00
19090;DHT22;9677;50.656;13.064;2022-12-18T04:33:34;-3.00;56.10
19090;DHT22;9677;50.656;13.064;2022-12-18T04:36:04;-3.00;56.20
19090;DHT22;9677;50.656;13.064;2022-12-18T04:38:34;-3.00;56.20
19090;DHT22;9677;50.656;13.064;2022-12-18T04:41:07;-3.00;56.20
19090;DHT22;9677;50.656;13.064;2022-12-18T04:43:36;-3.00;56.20
19090;DHT22;9677;50.656;13.064;2022-12-18T04:46:08;-3.10;56.00
19090;DHT22;9677;50.656;13.064;2022-12-18T04:48:37;-3.10;56.00
19090;DHT22;9677;50.656;13.064;2022-12-18T04:51:06;-3.10;56.00
19090;DHT22;9677;50.656;13.064;2022-12-18T04:53:35;-3.10;56.10
19090;DHT22;9677;50.656;13.064;2022-12-18T04:56:05;-3.10;56.20
19090;DHT22;9677;50.656;13.064;2022-12-18T04:58:34;-3.20;56.20
19090;DHT22;9677;50.656;13.064;2022-12-18T05:01:03;-3.20;56.20
19090;DHT22;9677;50.656;13.064;2022-12-18T05:03:34;-3.20;56.20
19090;DHT22;9677;50.656;13.064;2022-12-18T05:06:05;-3.20;56.20
19090;DHT22;9677;50.656;13.064;2022-12-18T05:08:34;-3.20;56.20
19090;DHT22;9677;50.656;13.064;2022-12-18T05:11:05;-3.20;56.30
19090;DHT22;9677;50.656;13.064;2022-12-18T05:13:35;-3.20;56.20
19090;DHT22;9677;50.656;13.064;2022-12-18T05:16:06;-3.00;56.30
19090;DHT22;9677;50.656;13.064;2022-12-18T05:18:37;-3.30;56.00
19090;DHT22;9677;50.656;13.064;2022-12-18T05:21:06;-3.20;55.90
19090;DHT22;9677;50.656;13.064;2022-12-18T05:23:34;-3.20;55.90
19090;DHT22;9677;50.656;13.064;2022-12-18T05:26:05;-3.30;55.80
19090;DHT22;9677;50.656;13.064;2022-12-18T05:28:35;-3.10;55.90
19090;DHT22;9677;50.656;13.064;2022-12-18T05:31:04;-3.40;56.30
19090;DHT22;9677;50.656;13.064;2022-12-18T05:33:35;-3.50;55.60
19090;DHT22;9677;50.656;13.064;2022-12-18T05:36:06;-3.50;55.60
19090;DHT22;9677;50.656;13.064;2022-12-18T05:38:37;-3.60;55.60
19090;DHT22;9677;50.656;13.064;2022-12-18T05:41:07;-3.60;55.60
19090;DHT22;9677;50.656;13.064;2022-12-18T05:43:38;-3.20;55.90
19090;DHT22;9677;50.656;13.064;2022-12-18T05:46:10;-3.70;55.60
19090;DHT22;9677;50.656;13.064;2022-12-18T05:48:42;-3.70;55.60
19090;DHT22;9677;50.656;13.064;2022-12-18T05:51:13;-3.80;55.50
19090;DHT22;9677;50.656;13.064;2022-12-18T05:53:43;-3.80;55.60
19090;DHT22;9677;50.656;13.064;2022-12-18T05:56:13;-3.90;55.60
19090;DHT22;9677;50.656;13.064;2022-12-18T05:58:43;-3.90;55.80
19090;DHT22;9677;50.656;13.064;2022-12-18T06:01:14;-3.90;55.80
19090;DHT22;9677;50.656;13.064;2022-12-18T06:03:45;-3.90;55.80
19090;DHT22;9677;50.656;13.064;2022-12-18T06:06:14;-3.90;55.90
19090;DHT22;9677;50.656;13.064;2022-12-18T06:08:44;-4.00;55.90
19090;DHT22;9677;50.656;13.064;2022-12-18T06:11:13;-4.00;56.00
19090;DHT22;9677;50.656;13.064;2022-12-18T06:13:45;-4.00;56.00
19090;DHT22;9677;50.656;13.064;2022-12-18T06:16:13;-4.00;55.90
19090;DHT22;9677;50.656;13.064;2022-12-18T06:18:42;-3.90;55.80
19090;DHT22;9677;50.656;13.064;2022-12-18T06:21:12;-3.90;55.60
19090;DHT22;9677;50.656;13.064;2022-12-18T06:23:40;-4.10;55.50
19090;DHT22;9677;50.656;13.064;2022-12-18T06:26:11;-4.20;55.50
19090;DHT22;9677;50.656;13.064;2022-12-18T06:28:41;-4.20;55.60
19090;DHT22;9677;50.656;13.064;2022-12-18T06:31:10;-3.70;55.90
19090;DHT22;9677;50.656;13.064;2022-12-18T06:33:39;-4.30;55.70
19090;DHT22;9677;50.656;13.064;2022-12-18T06:36:10;-4.30;55.80
19090;DHT22;9677;50.656;13.064;2022-12-18T06:38:42;-4.30;55.90
19090;DHT22;9677;50.656;13.064;2022-12-18T06:41:14;-4.30;55.90
19090;DHT22;9677;50.656;13.064;2022-12-18T06:43:43;-4.30;55.90
19090;DHT22;9677;50.656;13.064;2022-12-18T06:46:13;-4.30;55.90
19090;DHT22;9677;50.656;13.064;2022-12-18T06:48:41;-4.30;55.90
19090;DHT22;9677;50.656;13.064;2022-12-18T06:51:11;-4.30;55.90
19090;DHT22;9677;50.656;13.064;2022-12-18T06:53:40;-4.10;56.00
19090;DHT22;9677;50.656;13.064;2022-12-18T06:56:09;-4.40;55.90
19090;DHT22;9677;50.656;13.064;2022-12-18T06:58:38;-4.40;55.90
19090;DHT22;9677;50.656;13.064;2022-12-18T07:01:08;-4.40;55.90
19090;DHT22;9677;50.656;13.064;2022-12-18T07:03:39;-4.00;56.20
19090;DHT22;9677;50.656;13.064;2022-12-18T07:06:16;-4.40;56.00
19090;DHT22;9677;50.656;13.064;2022-12-18T07:08:46;-4.40;56.10
19090;DHT22;9677;50.656;13.064;2022-12-18T07:11:16;-4.50;56.10
19090;DHT22;9677;50.656;13.064;2022-12-18T07:13:45;-4.40;56.20
19090;DHT22;9677;50.656;13.064;2022-12-18T07:16:16;-4.40;56.20
19090;DHT22;9677;50.656;13.064;2022-12-18T07:18:51;-4.40;56.20
19090;DHT22;9677;50.656;13.064;2022-12-18T07:21:22;-4.40;56.20
19090;DHT22;9677;50.656;13.064;2022-12-18T07:23:52;-4.40;56.20
19090;DHT22;9677;50.656;13.064;2022-12-18T07:26:21;-4.40;56.20
19090;DHT22;9677;50.656;13.064;2022-12-18T07:28:50;-4.40;56.20
19090;DHT22;9677;50.656;13.064;2022-12-18T07:31:23;-4.40;56.10
19090;DHT22;9677;50.656;13.064;2022-12-18T07:33:52;-4.00;56.30
19090;DHT22;9677;50.656;13.064;2022-12-18T07:36:22;-4.40;56.20
19090;DHT22;9677;50.656;13.064;2022-12-18T07:38:51;-4.40;56.20
19090;DHT22;9677;50.656;13.064;2022-12-18T07:41:20;-4.70;56.00
19090;DHT22;9677;50.656;13.064;2022-12-18T07:43:49;-4.40;56.20
19090;DHT22;9677;50.656;13.064;2022-12-18T07:46:18;-4.40;56.10
19090;DHT22;9677;50.656;13.064;2022-12-18T07:48:47;-4.40;56.00
19090;DHT22;9677;50.656;13.064;2022-12-18T07:51:17;-4.40;55.90
19090;DHT22;9677;50.656;13.064;2022-12-18T07:57:41;-4.40;56.10
19090;DHT22;9677;50.656;13.064;2022-12-18T08:00:22;-4.40;56.10
19090;DHT22;9677;50.656;13.064;2022-12-18T08:02:51;-4.40;56.20
19090;DHT22;9677;50.656;13.064;2022-12-18T08:05:20;-3.80;56.50
19090;DHT22;9677;50.656;13.064;2022-12-18T08:07:49;-4.40;56.20
19090;DHT22;9677;50.656;13.064;2022-12-18T08:10:19;-4.40;56.20
19090;DHT22;9677;50.656;13.064;2022-12-18T08:12:49;-4.40;56.20
19090;DHT22;9677;50.656;13.064;2022-12-18T08:15:18;-4.40;56.20
19090;DHT22;9677;50.656;13.064;2022-12-18T08:17:47;-4.40;56.20
19090;DHT22;9677;50.656;13.064;2022-12-18T08:20:15;-4.40;56.30
19090;DHT22;9677;50.656;13.064;2022-12-18T08:22:45;-4.40;56.30
19090;DHT22;9677;50.656;13.064;2022-12-18T08:25:13;-4.40;56.30
19090;DHT22;9677;50.656;13.064;2022-12-18T08:27:43;-4.40;56.40
19090;DHT22;9677;50.656;13.064;2022-12-18T08:30:12;-4.30;56.50
19090;DHT22;9677;50.656;13.064;2022-12-18T08:32:41;-4.40;56.50
19090;DHT22;9677;50.656;13.064;2022-12-18T08:35:10;-4.30;56.60
19090;DHT22;9677;50.656;13.064;2022-12-18T08:37:43;-4.30;56.60
19090;DHT22;9677;50.656;13.064;2022-12-18T08:40:11;-4.30;56.60
19090;DHT22;9677;50.656;13.064;2022-12-18T08:42:43;-4.30;56.60
19090;DHT22;9677;50.656;13.064;2022-12-18T08:45:28;-4.30;56.50
19090;DHT22;9677;50.656;13.064;2022-12-18T08:47:59;-4.20;56.50
19090;DHT22;9677;50.656;13.064;2022-12-18T08:50:28;-4.20;56.50
19090;DHT22;9677;50.656;13.064;2022-12-18T08:52:56;-4.20;56.50
19090;DHT22;9677;50.656;13.064;2022-12-18T08:55:25;-4.20;56.40
19090;DHT22;9677;50.656;13.064;2022-12-18T08:57:55;-4.30;56.40
19090;DHT22;9677;50.656;13.064;2022-12-18T09:00:23;-4.30;56.30
19090;DHT22;9677;50.656;13.064;2022-12-18T09:02:52;-4.30;56.20
19090;DHT22;9677;50.656;13.064;2022-12-18T09:05:21;-4.30;56.10
19090;DHT22;9677;50.656;13.064;2022-12-18T09:07:49;-4.40;56.00
19090;DHT22;9677;50.656;13.064;2022-12-18T09:10:18;-4.40;56.00
19090;DHT22;9677;50.656;13.064;2022-12-18T09:12:48;-4.50;55.90
19090;DHT22;9677;50.656;13.064;2022-12-18T09:15:18;-4.50;56.00
19090;DHT22;9677;50.656;13.064;2022-12-18T09:17:47;-4.50;56.10
19090;DHT22;9677;50.656;13.064;2022-12-18T09:20:16;-4.50;56.20
19090;DHT22;9677;50.656;13.064;2022-12-18T09:22:45;-4.60;56.20
19090;DHT22;9677;50.656;13.064;2022-12-18T09:25:14;-4.60;56.30
19090;DHT22;9677;50.656;13.064;2022-12-18T09:27:42;-4.60;56.30
19090;DHT22;9677;50.656;13.064;2022-12-18T09:30:11;-4.60;56.40
19090;DHT22;9677;50.656;13.064;2022-12-18T09:32:41;-4.70;56.50
19090;DHT22;9677;50.656;13.064;2022-12-18T09:35:10;-4.70;56.50
19090;DHT22;9677;50.656;13.064;2022-12-18T09:37:38;-4.70;56.80
19090;DHT22;9677;50.656;13.064;2022-12-18T09:40:13;-4.70;56.70
19090;DHT22;9677;50.656;13.064;2022-12-18T09:42:45;-4.60;56.80
19090;DHT22;9677;50.656;13.064;2022-12-18T09:45:18;-4.60;56.90
19090;DHT22;9677;50.656;13.064;2022-12-18T09:47:48;-4.60;57.00
19090;DHT22;9677;50.656;13.064;2022-12-18T09:50:24;-4.60;57.10
19090;DHT22;9677;50.656;13.064;2022-12-18T09:52:59;-4.60;57.20
19090;DHT22;9677;50.656;13.064;2022-12-18T09:55:34;-4.50;57.30
19090;DHT22;9677;50.656;13.064;2022-12-18T09:58:10;-4.50;57.40
19090;DHT22;9677;50.656;13.064;2022-12-18T10:00:42;-4.40;57.40
19090;DHT22;9677;50.656;13.064;2022-12-18T10:03:14;-4.40;57.40
19090;DHT22;9677;50.656;13.064;2022-12-18T10:05:51;-4.30;57.50
19090;DHT22;9677;50.656;13.064;2022-12-18T10:08:33;-4.30;57.70
19090;DHT22;9677;50.656;13.064;2022-12-18T10:11:21;-4.20;57.70
19090;DHT22;9677;50.656;13.064;2022-12-18T10:13:58;-4.20;57.80
19090;DHT22;9677;50.656;13.064;2022-12-18T10:16:35;-4.10;57.90
19090;DHT22;9677;50.656;13.064;2022-12-18T10:19:21;-4.00;58.00
19090;DHT22;9677;50.656;13.064;2022-12-18T10:22:03;-3.90;58.10
19090;DHT22;9677;50.656;13.064;2022-12-18T10:24:43;-3.50;58.30
19090;DHT22;9677;50.656;13.064;2022-12-18T10:27:17;-3.80;58.10
19090;DHT22;9677;50.656;13.064;2022-12-18T10:29:47;-3.70;58.20
19090;DHT22;9677;50.656;13.064;2022-12-18T10:32:17;-3.60;58.30
19090;DHT22;9677;50.656;13.064;2022-12-18T10:34:49;-3.50;58.40
19090;DHT22;9677;50.656;13.064;2022-12-18T10:37:28;-3.40;58.50
19090;DHT22;9677;50.656;13.064;2022-12-18T10:40:12;-3.30;58.50
19090;DHT22;9677;50.656;13.064;2022-12-18T10:43:03;-3.20;58.60
19090;DHT22;9677;50.656;13.064;2022-12-18T10:45:33;-3.10;58.60
19090;DHT22;9677;50.656;13.064;2022-12-18T10:48:03;-3.00;58.70
19090;DHT22;9677;50.656;13.064;2022-12-18T10:50:35;-2.90;58.70
19090;DHT22;9677;50.656;13.064;2022-12-18T10:53:27;-2.80;58.80
19090;DHT22;9677;50.656;13.064;2022-12-18T10:55:58;-2.70;58.90
19090;DHT22;9677;50.656;13.064;2022-12-18T10:58:28;-2.50;59.00
19090;DHT22;9677;50.656;13.064;2022-12-18T11:01:10;-2.50;59.00
19090;DHT22;9677;50.656;13.064;2022-12-18T11:03:42;-2.40;59.20
19090;DHT22;9677;50.656;13.064;2022-12-18T11:06:15;-2.30;59.30
19090;DHT22;9677;50.656;13.064;2022-12-18T11:08:57;-2.20;59.50
19090;DHT22;9677;50.656;13.064;2022-12-18T11:11:28;-2.10;59.60
19090;DHT22;9677;50.656;13.064;2022-12-18T11:14:02;-1.90;59.60
19090;DHT22;9677;50.656;13.064;2022-12-18T11:16:35;-1.80;59.70
19090;DHT22;9677;50.656;13.064;2022-12-18T11:19:32;-1.70;59.60
19090;DHT22;9677;50.656;13.064;2022-12-18T11:22:18;-1.50;59.70
19090;DHT22;9677;50.656;13.064;2022-12-18T11:24:55;-1.40;59.70
19090;DHT22;9677;50.656;13.064;2022-12-18T11:27:48;-1.20;59.70
19090;DHT22;9677;50.656;13.064;2022-12-18T11:30:23;-1.10;59.60
19090;DHT22;9677;50.656;13.064;2022-12-18T11:33:01;-0.90;59.70
19090;DHT22;9677;50.656;13.064;2022-12-18T11:35:39;-0.80;59.60
19090;DHT22;9677;50.656;13.064;2022-12-18T11:38:18;-0.70;59.60
19090;DHT22;9677;50.656;13.064;2022-12-18T11:40:55;-0.50;59.60
19090;DHT22;9677;50.656;13.064;2022-12-18T11:43:29;-0.40;59.60
19090;DHT22;9677;50.656;13.064;2022-12-18T11:46:04;-0.20;59.50
19090;DHT22;9677;50.656;13.064;2022-12-18T11:48:44;0.10;59.50
19090;DHT22;9677;50.656;13.064;2022-12-18T11:51:22;0.10;59.30
19090;DHT22;9677;50.656;13.064;2022-12-18T11:53:56;0.20;59.20
19090;DHT22;9677;50.656;13.064;2022-12-18T11:56:30;0.30;58.90
19090;DHT22;9677;50.656;13.064;2022-12-18T11:59:13;0.40;58.70
19090;DHT22;9677;50.656;13.064;2022-12-18T12:01:50;0.50;58.40
19090;DHT22;9677;50.656;13.064;2022-12-18T12:04:54;0.60;58.20
19090;DHT22;9677;50.656;13.064;2022-12-18T12:07:38;0.70;58.00
19090;DHT22;9677;50.656;13.064;2022-12-18T12:10:26;0.70;57.90
19090;DHT22;9677;50.656;13.064;2022-12-18T12:13:20;0.80;57.80
19090;DHT22;9677;50.656;13.064;2022-12-18T12:16:01;0.90;57.70
19090;DHT22;9677;50.656;13.064;2022-12-18T12:18:43;0.90;57.60
19090;DHT22;9677;50.656;13.064;2022-12-18T12:21:32;1.00;57.50
19090;DHT22;9677;50.656;13.064;2022-12-18T12:24:16;1.00;57.50
19090;DHT22;9677;50.656;13.064;2022-12-18T12:26:59;0.60;57.10
19090;DHT22;9677;50.656;13.064;2022-12-18T12:29:41;1.10;57.30
19090;DHT22;9677;50.656;13.064;2022-12-18T12:32:22;1.10;57.10
19090;DHT22;9677;50.656;13.064;2022-12-18T12:35:12;1.10;57.10
19090;DHT22;9677;50.656;13.064;2022-12-18T12:37:57;1.20;57.10
19090;DHT22;9677;50.656;13.064;2022-12-18T12:40:36;1.20;56.90
19090;DHT22;9677;50.656;13.064;2022-12-18T12:43:28;1.20;57.00
19090;DHT22;9677;50.656;13.064;2022-12-18T12:46:03;1.20;56.90
19090;DHT22;9677;50.656;13.064;2022-12-18T12:48:42;1.20;56.90
19090;DHT22;9677;50.656;13.064;2022-12-18T12:51:16;1.20;56.80
19090;DHT22;9677;50.656;13.064;2022-12-18T12:53:46;1.50;56.90
19090;DHT22;9677;50.656;13.064;2022-12-18T12:56:18;1.30;56.70
19090;DHT22;9677;50.656;13.064;2022-12-18T12:58:56;1.30;56.60
19090;DHT22;9677;50.656;13.064;2022-12-18T13:01:34;1.30;56.60
19090;DHT22;9677;50.656;13.064;2022-12-18T13:04:16;1.30;56.60
19090;DHT22;9677;50.656;13.064;2022-12-18T13:06:56;1.40;56.60
19090;DHT22;9677;50.656;13.064;2022-12-18T13:09:30;1.30;56.60
19090;DHT22;9677;50.656;13.064;2022-12-18T13:12:03;1.40;56.70
19090;DHT22;9677;50.656;13.064;2022-12-18T13:14:52;1.30;56.60
19090;DHT22;9677;50.656;13.064;2022-12-18T13:17:29;1.30;56.70
19090;DHT22;9677;50.656;13.064;2022-12-18T13:20:06;1.30;56.70
19090;DHT22;9677;50.656;13.064;2022-12-18T13:22:42;1.30;56.70
19090;DHT22;9677;50.656;13.064;2022-12-18T13:25:33;1.30;56.70
19090;DHT22;9677;50.656;13.064;2022-12-18T13:28:06;1.30;56.60
19090;DHT22;9677;50.656;13.064;2022-12-18T13:30:49;1.40;56.70
19090;DHT22;9677;50.656;13.064;2022-12-18T13:33:47;1.90;56.90
19090;DHT22;9677;50.656;13.064;2022-12-18T13:36:36;1.40;56.60
19090;DHT22;9677;50.656;13.064;2022-12-18T13:39:34;1.40;56.70
19090;DHT22;9677;50.656;13.064;2022-12-18T13:45:41;1.40;56.60
19090;DHT22;9677;50.656;13.064;2022-12-18T13:48:21;1.40;56.60
19090;DHT22;9677;50.656;13.064;2022-12-18T13:50:59;1.60;56.70
19090;DHT22;9677;50.656;13.064;2022-12-18T13:53:36;1.50;56.60
19090;DHT22;9677;50.656;13.064;2022-12-18T13:56:07;1.50;56.50
19090;DHT22;9677;50.656;13.064;2022-12-18T13:58:36;1.50;56.40
19090;DHT22;9677;50.656;13.064;2022-12-18T14:01:05;1.50;56.40
19090;DHT22;9677;50.656;13.064;2022-12-18T14:03:40;1.60;56.40
19090;DHT22;9677;50.656;13.064;2022-12-18T14:06:11;1.40;56.10
19090;DHT22;9677;50.656;13.064;2022-12-18T14:08:43;1.40;56.10
19090;DHT22;9677;50.656;13.064;2022-12-18T14:11:20;1.40;56.00
19090;DHT22;9677;50.656;13.064;2022-12-18T14:13:52;1.40;55.90
19090;DHT22;9677;50.656;13.064;2022-12-18T14:16:22;1.30;55.80
19090;DHT22;9677;50.656;13.064;2022-12-18T14:18:54;1.30;55.90
19090;DHT22;9677;50.656;13.064;2022-12-18T14:21:37;1.30;55.90
19090;DHT22;9677;50.656;13.064;2022-12-18T14:24:13;1.20;55.80
19090;DHT22;9677;50.656;13.064;2022-12-18T14:26:47;1.10;55.70
19090;DHT22;9677;50.656;13.064;2022-12-18T14:29:24;1.10;55.70
19090;DHT22;9677;50.656;13.064;2022-12-18T14:32:14;1.00;55.70
19090;DHT22;9677;50.656;13.064;2022-12-18T14:34:47;1.00;55.70
19090;DHT22;9677;50.656;13.064;2022-12-18T14:37:20;1.20;55.80
19090;DHT22;9677;50.656;13.064;2022-12-18T14:39:57;0.90;55.70
19090;DHT22;9677;50.656;13.064;2022-12-18T14:42:33;0.80;55.60
19090;DHT22;9677;50.656;13.064;2022-12-18T14:45:35;0.70;55.70
19090;DHT22;9677;50.656;13.064;2022-12-18T14:48:13;0.70;55.60
19090;DHT22;9677;50.656;13.064;2022-12-18T14:50:58;0.60;55.70
19090;DHT22;9677;50.656;13.064;2022-12-18T14:53:33;0.60;55.70
19090;DHT22;9677;50.656;13.064;2022-12-18T14:56:14;0.50;55.60
19090;DHT22;9677;50.656;13.064;2022-12-18T14:58:49;0.50;55.70
19090;DHT22;9677;50.656;13.064;2022-12-18T15:01:21;0.40;55.70
19090;DHT22;9677;50.656;13.064;2022-12-18T15:03:53;0.40;55.80
19090;DHT22;9677;50.656;13.064;2022-12-18T15:06:30;0.30;55.80
19090;DHT22;9677;50.656;13.064;2022-12-18T15:09:02;0.50;55.90
19090;DHT22;9677;50.656;13.064;2022-12-18T15:11:42;0.20;55.70
19090;DHT22;9677;50.656;13.064;2022-12-18T15:17:16;0.20;55.80
19090;DHT22;9677;50.656;13.064;2022-12-18T15:19:47;0.10;55.70
19090;DHT22;9677;50.656;13.064;2022-12-18T15:22:24;0.10;55.80
19090;DHT22;9677;50.656;13.064;2022-12-18T15:24:55;0.00;55.80
19090;DHT22;9677;50.656;13.064;2022-12-18T15:27:27;0.00;55.80
19090;DHT22;9677;50.656;13.064;2022-12-18T15:30:19;0.00;55.80
19090;DHT22;9677;50.656;13.064;2022-12-18T15:32:50;-0.10;55.70
19090;DHT22;9677;50.656;13.064;2022-12-18T15:35:21;-0.10;55.90
19090;DHT22;9677;50.656;13.064;2022-12-18T15:37:52;-0.10;55.90
19090;DHT22;9677;50.656;13.064;2022-12-18T15:40:22;-0.20;55.90
19090;DHT22;9677;50.656;13.064;2022-12-18T15:42:54;-0.20;56.00
19090;DHT22;9677;50.656;13.064;2022-12-18T15:45:41;0.30;56.30
19090;DHT22;9677;50.656;13.064;2022-12-18T15:48:20;-0.20;56.00
19090;DHT22;9677;50.656;13.064;2022-12-18T15:50:50;-0.30;56.00
19090;DHT22;9677;50.656;13.064;2022-12-18T15:53:24;-0.30;56.00
19090;DHT22;9677;50.656;13.064;2022-12-18T15:55:53;-0.30;56.10
19090;DHT22;9677;50.656;13.064;2022-12-18T15:58:40;-0.30;56.10
19090;DHT22;9677;50.656;13.064;2022-12-18T16:01:09;-0.30;56.10
19090;DHT22;9677;50.656;13.064;2022-12-18T16:03:39;-0.30;56.20
19090;DHT22;9677;50.656;13.064;2022-12-18T16:06:09;-0.30;56.10
19090;DHT22;9677;50.656;13.064;2022-12-18T16:08:39;-0.30;56.20
19090;DHT22;9677;50.656;13.064;2022-12-18T16:11:10;-0.40;56.20
19090;DHT22;9677;50.656;13.064;2022-12-18T16:14:07;-0.40;56.20
19090;DHT22;9677;50.656;13.064;2022-12-18T16:16:42;-0.40;56.20
19090;DHT22;9677;50.656;13.064;2022-12-18T16:19:10;-0.40;56.20
19090;DHT22;9677;50.656;13.064;2022-12-18T16:21:39;-0.40;56.20
19090;DHT22;9677;50.656;13.064;2022-12-18T16:24:13;-0.40;56.20
19090;DHT22;9677;50.656;13.064;2022-12-18T16:26:43;-0.40;56.30